Time;durP1;ratioP1;P1;durP2;ratioP2;P2;SDS_P1;SDS_P2;PMS_P1;PMS_P2;Temp;Humidity;BMP_temperature;BMP_pressure;BME280_temperature;BME280_humidity;BME280_pressure;Samples;Min_cycle;Max_cycle;Signal;HPM_P1;HPM_P2
2024/02/11 00:00:49;;;;;;;15.50;7.97;;;;;;;13.17;100.00;98250.34;5094953;28;20091;-48
2024/02/11 00:03:27;;;;;;;20.63;8.80;;;;;;;13.21;100.00;98242.88;5094408;28;20095;-46
2024/02/11 00:05:56;;;;;;;19.52;8.02;;;;;;;13.18;100.00;98250.19;5094636;28;20054;-46
2024/02/11 00:08:25;;;;;;;21.85;8.55;;;;;;;13.17;100.00;98251.19;5094483;28;20055;-47
2024/02/11 00:10:54;;;;;;;18.20;8.40;;;;;;;13.21;100.00;98250.91;5094655;28;20044;-46
2024/02/11 00:13:24;;;;;;;20.40;8.13;;;;;;;13.18;100.00;98263.59;5094298;28;20378;-48
2024/02/11 00:15:52;;;;;;;17.70;8.18;;;;;;;13.19;100.00;98253.75;5094374;28;20485;-47
2024/02/11 00:18:23;;;;;;;18.15;8.07;;;;;;;13.09;100.00;98251.13;5094627;28;20071;-47
2024/02/11 00:20:52;;;;;;;24.58;8.43;;;;;;;13.10;100.00;98252.81;5094531;28;20063;-47
2024/02/11 00:23:22;;;;;;;18.90;8.45;;;;;;;13.08;100.00;98248.63;5094385;28;20052;-45
2024/02/11 00:25:51;;;;;;;16.35;8.38;;;;;;;13.05;100.00;98251.63;5094224;28;20040;-48
2024/02/11 00:28:21;;;;;;;19.80;8.43;;;;;;;12.98;100.00;98254.06;5094034;28;20420;-46
2024/02/11 00:30:51;;;;;;;19.80;8.60;;;;;;;12.95;100.00;98241.00;5094348;28;20116;-45
2024/02/11 00:33:20;;;;;;;17.65;8.13;;;;;;;13.02;100.00;98241.22;5094183;28;20048;-46
2024/02/11 00:35:49;;;;;;;16.15;7.85;;;;;;;13.10;100.00;98239.44;5094090;28;20040;-46
2024/02/11 00:38:17;;;;;;;20.05;7.45;;;;;;;13.07;100.00;98231.72;5094029;28;20072;-48
2024/02/11 00:40:46;;;;;;;19.77;7.53;;;;;;;13.01;100.00;98239.53;5093802;28;20178;-48
2024/02/11 00:43:17;;;;;;;13.80;7.13;;;;;;;13.04;100.00;98240.06;5093996;28;20136;-46
2024/02/11 00:45:48;;;;;;;15.98;6.75;;;;;;;13.06;100.00;98238.06;5093966;28;20051;-47
2024/02/11 00:48:18;;;;;;;13.40;6.55;;;;;;;13.00;100.00;98236.00;5094056;28;20109;-47
2024/02/11 00:50:47;;;;;;;16.13;5.72;;;;;;;13.03;100.00;98243.75;5093939;28;20052;-48
2024/02/11 00:53:16;;;;;;;14.93;6.25;;;;;;;13.06;100.00;98229.22;5094015;28;20097;-46
2024/02/11 00:55:44;;;;;;;10.65;5.97;;;;;;;13.05;100.00;98231.03;5094088;28;20109;-48
2024/02/11 00:58:13;;;;;;;15.73;5.97;;;;;;;13.01;100.00;98232.34;5094633;28;20051;-49
2024/02/11 01:00:45;;;;;;;17.20;5.70;;;;;;;12.97;100.00;98230.97;5095026;28;20075;-48
2024/02/11 01:03:14;;;;;;;11.13;5.80;;;;;;;12.99;100.00;98217.44;5093454;28;20059;-49
2024/02/11 01:05:44;;;;;;;10.98;5.15;;;;;;;13.00;100.00;98221.78;5093722;28;20097;-46
2024/02/11 01:08:12;;;;;;;11.93;5.78;;;;;;;13.02;100.00;98225.16;5092949;28;20051;-48
2024/02/11 01:10:41;;;;;;;14.48;5.35;;;;;;;12.94;100.00;98220.59;5093448;28;20052;-47
2024/02/11 01:13:13;;;;;;;9.57;5.05;;;;;;;12.87;100.00;98220.38;5093760;28;20048;-47
2024/02/11 01:15:41;;;;;;;10.68;5.43;;;;;;;12.78;100.00;98210.59;5093343;28;20508;-49
2024/02/11 01:18:11;;;;;;;10.60;5.47;;;;;;;12.86;100.00;98212.50;5093364;28;20044;-47
2024/02/11 01:20:39;;;;;;;14.02;5.40;;;;;;;12.84;100.00;98204.66;5093085;28;20044;-46
2024/02/11 01:23:09;;;;;;;10.93;5.30;;;;;;;12.84;100.00;98195.78;5093329;28;20097;-47
2024/02/11 01:25:38;;;;;;;10.10;4.78;;;;;;;12.78;100.00;98197.22;5093187;28;20139;-46
2024/02/11 01:28:06;;;;;;;11.63;4.90;;;;;;;12.71;100.00;98193.50;5093146;28;20386;-51
2024/02/11 01:30:35;;;;;;;11.68;4.63;;;;;;;12.75;100.00;98196.72;5092983;28;20052;-47
2024/02/11 01:33:04;;;;;;;10.73;4.75;;;;;;;12.79;100.00;98200.75;5092897;28;20472;-48
2024/02/11 01:35:32;;;;;;;10.80;4.80;;;;;;;12.68;100.00;98193.81;5093197;28;20052;-49
2024/02/11 01:38:01;;;;;;;11.18;4.18;;;;;;;12.68;100.00;98188.47;5093056;28;20070;-48
2024/02/11 01:40:32;;;;;;;12.60;4.85;;;;;;;12.66;100.00;98187.78;5093179;28;20079;-48
2024/02/11 01:43:09;;;;;;;10.52;4.60;;;;;;;12.65;100.00;98193.28;5092821;28;20390;-48
2024/02/11 01:45:37;;;;;;;13.13;4.70;;;;;;;12.56;100.00;98185.19;5092488;28;20480;-47
2024/02/11 01:48:09;;;;;;;12.07;4.50;;;;;;;12.47;100.00;98191.47;5092866;28;20048;-49
2024/02/11 01:50:38;;;;;;;8.82;4.63;;;;;;;12.53;100.00;98182.81;5092786;28;20055;-47
2024/02/11 01:53:09;;;;;;;11.48;4.22;;;;;;;12.56;100.00;98179.84;5092685;28;20048;-47
2024/02/11 01:55:41;;;;;;;8.18;4.32;;;;;;;12.46;100.00;98171.09;5092881;28;20054;-48
2024/02/11 01:58:11;;;;;;;11.55;4.00;;;;;;;12.45;100.00;98161.38;5092472;28;20044;-49
2024/02/11 02:00:41;;;;;;;8.43;4.05;;;;;;;12.31;100.00;98148.56;5092550;28;20062;-47
2024/02/11 02:03:12;;;;;;;9.85;3.90;;;;;;;12.43;100.00;98144.63;5092147;28;20055;-50
2024/02/11 02:05:40;;;;;;;7.88;4.32;;;;;;;12.49;100.00;98138.69;5092529;28;20050;-49
2024/02/11 02:08:09;;;;;;;9.23;4.05;;;;;;;12.48;100.00;98133.50;5092344;28;20044;-48
2024/02/11 02:10:39;;;;;;;7.38;4.22;;;;;;;12.55;100.00;98127.38;5092007;28;20044;-48
2024/02/11 02:13:08;;;;;;;10.18;4.10;;;;;;;12.54;100.00;98128.34;5092085;28;20055;-47
2024/02/11 02:15:36;;;;;;;13.05;4.30;;;;;;;12.45;100.00;98123.94;5092238;28;20394;-47
2024/02/11 02:18:05;;;;;;;11.95;4.40;;;;;;;12.52;100.00;98122.31;5092145;28;20455;-48
2024/02/11 02:20:33;;;;;;;10.63;4.90;;;;;;;12.54;100.00;98117.63;5091079;28;20066;-48
2024/02/11 02:23:03;;;;;;;10.82;4.30;;;;;;;12.57;100.00;98124.53;5091862;28;20097;-49
2024/02/11 02:25:32;;;;;;;12.02;4.78;;;;;;;12.56;100.00;98121.03;5091832;28;20058;-48
2024/02/11 02:28:04;;;;;;;9.15;4.22;;;;;;;12.64;100.00;98114.88;5091904;28;20044;-47
2024/02/11 02:30:34;;;;;;;11.77;4.68;;;;;;;12.65;100.00;98107.72;5091823;28;20162;-51
2024/02/11 02:33:02;;;;;;;12.93;4.63;;;;;;;12.51;100.00;98117.97;5091771;28;20087;-47
2024/02/11 02:35:33;;;;;;;10.30;5.20;;;;;;;12.43;100.00;98107.19;5091758;28;20135;-47
2024/02/11 02:38:03;;;;;;;9.48;4.25;;;;;;;12.45;100.00;98113.25;5091716;28;20449;-45
2024/02/11 02:40:32;;;;;;;10.90;4.13;;;;;;;12.54;100.00;98116.81;5092191;28;20382;-47
2024/02/11 02:43:07;;;;;;;10.70;4.85;;;;;;;12.54;100.00;98101.59;5091682;28;20485;-46
2024/02/11 02:45:37;;;;;;;10.52;5.25;;;;;;;12.51;100.00;98107.25;5091934;28;20048;-46
2024/02/11 02:48:07;;;;;;;10.90;4.53;;;;;;;12.50;100.00;98105.59;5091724;28;20518;-46
2024/02/11 02:50:36;;;;;;;9.52;4.25;;;;;;;12.55;100.00;98103.31;5091583;28;20473;-45
2024/02/11 02:53:10;;;;;;;10.75;5.03;;;;;;;12.55;100.00;98091.75;5091749;28;20076;-49
2024/02/11 02:55:39;;;;;;;10.85;4.88;;;;;;;12.41;100.00;98095.00;5091736;28;20386;-47
2024/02/11 02:58:11;;;;;;;12.02;4.82;;;;;;;12.33;100.00;98093.94;5091368;28;20137;-47
2024/02/11 03:00:40;;;;;;;8.80;4.67;;;;;;;12.43;100.00;98099.19;5091525;28;20082;-46
2024/02/11 03:03:08;;;;;;;10.85;4.45;;;;;;;12.45;100.00;98091.88;5090856;28;20048;-49
2024/02/11 03:05:41;;;;;;;10.73;5.13;;;;;;;12.51;100.00;98096.56;5090961;28;20059;-48
2024/02/11 03:08:12;;;;;;;13.52;5.32;;;;;;;12.54;100.00;98090.91;5091478;28;20447;-46
2024/02/11 03:10:41;;;;;;;10.52;4.95;;;;;;;12.60;100.00;98090.28;5091258;28;20413;-48
2024/02/11 03:13:09;;;;;;;10.48;4.63;;;;;;;12.64;100.00;98089.97;5091146;28;20044;-48
2024/02/11 03:15:38;;;;;;;9.77;4.22;;;;;;;12.64;100.00;98096.13;5091024;28;20551;-48
2024/02/11 03:18:06;;;;;;;9.65;4.10;;;;;;;12.57;100.00;98098.63;5091371;28;20127;-45
2024/02/11 03:20:35;;;;;;;10.73;4.82;;;;;;;12.45;100.00;98091.88;5091314;28;20064;-48
2024/02/11 03:23:03;;;;;;;11.85;4.30;;;;;;;12.49;100.00;98082.53;5091099;28;20384;-47
2024/02/11 03:25:33;;;;;;;8.63;4.40;;;;;;;12.49;100.00;98071.81;5091197;28;20071;-47
2024/02/11 03:28:01;;;;;;;13.57;4.85;;;;;;;12.38;100.00;98074.75;5091046;28;20048;-48
2024/02/11 03:30:30;;;;;;;10.48;4.57;;;;;;;12.27;100.00;98073.19;5091209;28;20083;-44
2024/02/11 03:32:58;;;;;;;8.27;4.30;;;;;;;12.07;100.00;98061.00;5093740;28;20079;-48
2024/02/11 03:35:27;;;;;;;10.23;4.45;;;;;;;12.08;100.00;98077.88;5095296;28;20134;-48
2024/02/11 03:37:55;;;;;;;8.40;4.03;;;;;;;12.12;100.00;98069.38;5095195;28;20052;-48
2024/02/11 03:40:24;;;;;;;12.48;4.70;;;;;;;12.14;100.00;98066.53;5095530;28;20059;-48
2024/02/11 03:42:54;;;;;;;10.15;4.40;;;;;;;12.12;100.00;98063.19;5094868;28;20040;-47
2024/02/11 03:45:22;;;;;;;9.55;4.00;;;;;;;12.00;100.00;98066.13;5095195;28;20044;-45
2024/02/11 03:47:50;;;;;;;9.10;3.97;;;;;;;12.17;100.00;98060.91;5095207;28;20050;-48
2024/02/11 03:50:19;;;;;;;8.98;3.90;;;;;;;12.16;100.00;98053.88;5094918;28;20078;-45
2024/02/11 03:52:48;;;;;;;9.57;4.38;;;;;;;12.12;100.00;98055.19;5094934;28;20044;-47
2024/02/11 03:55:16;;;;;;;12.50;4.30;;;;;;;12.18;100.00;98047.38;5094654;28;20123;-47
2024/02/11 03:57:45;;;;;;;9.95;3.95;;;;;;;12.25;100.00;98047.59;5094952;28;20044;-48
2024/02/11 04:00:16;;;;;;;10.13;4.00;;;;;;;12.19;100.00;98042.88;5094945;28;20370;-45
2024/02/11 04:02:44;;;;;;;9.05;3.97;;;;;;;12.20;100.00;98028.53;5094632;28;20058;-45
2024/02/11 04:05:15;;;;;;;8.77;4.40;;;;;;;12.09;100.00;98034.13;5094623;28;20044;-48
2024/02/11 04:07:46;;;;;;;8.15;4.00;;;;;;;12.29;100.00;98030.25;5094638;28;20051;-47
2024/02/11 04:10:19;;;;;;;10.45;4.47;;;;;;;12.25;100.00;98024.38;5094879;28;20080;-46
2024/02/11 04:12:48;;;;;;;7.75;4.00;;;;;;;12.20;100.00;98009.81;5094543;28;20412;-45
2024/02/11 04:15:19;;;;;;;10.00;4.32;;;;;;;12.02;100.00;98008.00;5094620;28;20404;-47
2024/02/11 04:17:48;;;;;;;8.45;4.53;;;;;;;12.03;100.00;98007.03;5094427;28;20051;-46
2024/02/11 04:20:24;;;;;;;9.05;4.20;;;;;;;12.17;100.00;98004.78;5094463;28;20048;-46
2024/02/11 04:22:57;;;;;;;9.65;4.72;;;;;;;12.11;100.00;98005.41;5094406;28;20087;-46
2024/02/11 04:25:29;;;;;;;9.18;4.25;;;;;;;12.12;100.00;98009.75;5094358;28;20048;-48
2024/02/11 04:27:57;;;;;;;9.43;4.38;;;;;;;12.14;100.00;98010.44;5094316;28;20097;-48
2024/02/11 04:30:29;;;;;;;11.18;4.50;;;;;;;12.16;100.00;98011.09;5094239;28;20572;-49
2024/02/11 04:33:03;;;;;;;9.77;4.18;;;;;;;12.13;100.00;98001.56;5094333;28;20052;-47
2024/02/11 04:35:33;;;;;;;12.35;5.18;;;;;;;12.02;100.00;98005.34;5094644;28;20157;-49
2024/02/11 04:38:07;;;;;;;11.32;4.68;;;;;;;11.95;100.00;97993.59;5094073;28;20048;-48
2024/02/11 04:40:39;;;;;;;13.25;5.07;;;;;;;11.91;100.00;97997.59;5094072;28;20083;-46
2024/02/11 04:43:07;;;;;;;14.00;5.43;;;;;;;11.94;100.00;97994.59;5093203;28;20079;-45
2024/02/11 04:45:37;;;;;;;9.57;5.03;;;;;;;12.01;100.00;98002.84;5093604;28;20044;-47
2024/02/11 04:48:09;;;;;;;10.73;5.25;;;;;;;12.11;100.00;97998.22;5094140;28;20511;-47
2024/02/11 04:50:40;;;;;;;12.63;5.68;;;;;;;12.19;100.00;98008.13;5094282;28;20087;-46
2024/02/11 04:53:09;;;;;;;10.23;5.30;;;;;;;12.28;100.00;98009.88;5093789;28;20040;-48
2024/02/11 04:55:43;;;;;;;11.93;5.45;;;;;;;12.27;100.00;98013.53;5093725;28;20122;-47
2024/02/11 04:58:15;;;;;;;10.80;5.20;;;;;;;12.26;100.00;98019.88;5093575;28;20496;-48
2024/02/11 05:00:48;;;;;;;12.25;5.55;;;;;;;12.30;100.00;98013.22;5093572;28;20131;-48
2024/02/11 05:03:18;;;;;;;12.52;5.40;;;;;;;12.27;100.00;98016.22;5093347;28;20063;-51
2024/02/11 05:05:49;;;;;;;9.55;4.97;;;;;;;12.30;100.00;98018.56;5093454;28;20048;-48
2024/02/11 05:08:22;;;;;;;8.88;5.25;;;;;;;12.25;100.00;98015.50;5093126;28;20052;-49
2024/02/11 05:10:51;;;;;;;12.23;5.63;;;;;;;12.28;100.00;98016.06;5093633;28;20520;-45
2024/02/11 05:13:23;;;;;;;12.13;5.30;;;;;;;12.25;100.00;98018.19;5093389;28;20402;-48
2024/02/11 05:15:57;;;;;;;12.52;5.53;;;;;;;12.28;100.00;98015.22;5093502;28;20123;-46
2024/02/11 05:18:29;;;;;;;10.75;5.72;;;;;;;12.25;100.00;98021.69;5093330;28;20121;-48
2024/02/11 05:20:57;;;;;;;10.07;5.20;;;;;;;12.34;100.00;98014.56;5093142;28;20040;-48
2024/02/11 05:23:26;;;;;;;12.50;5.70;;;;;;;12.26;100.00;98025.25;5093319;28;20517;-46
2024/02/11 05:25:54;;;;;;;9.10;5.60;;;;;;;12.24;100.00;98022.69;5093352;28;20051;-47
2024/02/11 05:28:23;;;;;;;11.15;5.85;;;;;;;12.37;100.00;98014.28;5093233;28;20667;-46
2024/02/11 05:30:55;;;;;;;12.25;5.93;;;;;;;12.34;100.00;98017.25;5093141;28;20048;-46
2024/02/11 05:33:24;;;;;;;13.27;6.72;;;;;;;12.32;100.00;98017.41;5092902;28;20056;-47
2024/02/11 05:35:52;;;;;;;12.88;5.97;;;;;;;12.31;100.00;98017.56;5092931;28;20505;-47
2024/02/11 05:38:21;;;;;;;12.15;5.78;;;;;;;12.22;100.00;98016.66;5093244;28;20485;-49
2024/02/11 05:40:56;;;;;;;10.15;5.55;;;;;;;12.19;100.00;98017.00;5093062;28;20059;-46
2024/02/11 05:43:26;;;;;;;11.30;5.95;;;;;;;12.22;100.00;98015.84;5092874;28;20067;-48
2024/02/11 05:45:56;;;;;;;10.65;5.72;;;;;;;12.04;100.00;98008.69;5092929;28;20465;-47
2024/02/11 05:48:25;;;;;;;12.05;5.50;;;;;;;11.86;100.00;98013.22;5092788;28;20044;-47
2024/02/11 05:50:53;;;;;;;14.70;6.68;;;;;;;11.84;100.00;98022.38;5092992;28;20076;-45
2024/02/11 05:53:23;;;;;;;14.30;6.07;;;;;;;11.72;100.00;98021.75;5092967;28;20151;-45
2024/02/11 05:55:53;;;;;;;12.48;5.80;;;;;;;11.65;100.00;98026.03;5092432;28;20058;-46
2024/02/11 05:58:22;;;;;;;12.77;6.03;;;;;;;11.67;100.00;98027.53;5092524;28;20044;-46
2024/02/11 06:00:50;;;;;;;11.57;6.20;;;;;;;11.76;100.00;98031.13;5092364;28;20052;-46
2024/02/11 06:03:21;;;;;;;15.10;7.00;;;;;;;11.77;100.00;98022.13;5092269;28;20048;-48
2024/02/11 06:05:50;;;;;;;10.52;6.28;;;;;;;11.85;100.00;98024.06;5092295;28;20633;-44
2024/02/11 06:08:20;;;;;;;10.55;6.35;;;;;;;11.80;100.00;98021.88;5092446;28;20055;-48
2024/02/11 06:10:49;;;;;;;13.75;6.20;;;;;;;11.61;100.00;98027.34;5092271;28;20059;-45
2024/02/11 06:13:19;;;;;;;17.58;7.20;;;;;;;11.62;100.00;98023.69;5092069;28;20369;-46
2024/02/11 06:15:48;;;;;;;10.43;5.93;;;;;;;11.59;100.00;98029.34;5092510;28;20155;-45
2024/02/11 06:18:17;;;;;;;9.90;5.75;;;;;;;11.57;100.00;98023.28;5092108;28;20550;-45
2024/02/11 06:20:48;;;;;;;9.13;6.00;;;;;;;11.61;100.00;98033.53;5092087;28;20454;-49
2024/02/11 06:23:16;;;;;;;12.07;6.43;;;;;;;11.57;100.00;98024.13;5092060;28;20090;-48
2024/02/11 06:25:44;;;;;;;11.82;6.13;;;;;;;11.54;100.00;98026.25;5091747;28;20044;-47
2024/02/11 06:28:13;;;;;;;12.32;6.45;;;;;;;11.52;100.00;98025.59;5091814;28;20499;-44
2024/02/11 06:30:42;;;;;;;12.38;6.05;;;;;;;11.51;100.00;98024.75;5091937;28;20190;-47
2024/02/11 06:33:10;;;;;;;10.95;5.82;;;;;;;11.55;100.00;98027.94;5091664;28;20453;-47
2024/02/11 06:35:40;;;;;;;10.13;5.93;;;;;;;11.58;100.00;98025.81;5092112;28;20224;-46
2024/02/11 06:38:12;;;;;;;15.65;6.43;;;;;;;11.66;100.00;98022.38;5092168;28;20417;-47
2024/02/11 06:40:40;;;;;;;11.60;5.90;;;;;;;11.58;100.00;98016.94;5091913;28;20051;-47
2024/02/11 06:43:11;;;;;;;11.20;6.10;;;;;;;11.52;100.00;98017.56;5091698;28;20040;-46
2024/02/11 06:45:45;;;;;;;15.38;6.10;;;;;;;11.56;100.00;98032.28;5091897;28;20043;-45
2024/02/11 06:48:15;;;;;;;9.68;5.35;;;;;;;11.35;100.00;98030.75;5091686;28;20048;-45
2024/02/11 06:50:44;;;;;;;11.38;5.90;;;;;;;11.36;100.00;98023.56;5091543;28;20135;-48
2024/02/11 06:53:13;;;;;;;11.98;6.20;;;;;;;11.40;100.00;98031.16;5091383;28;20055;-48
2024/02/11 06:55:41;;;;;;;10.13;5.93;;;;;;;11.51;100.00;98024.75;5091519;28;20044;-46
2024/02/11 06:58:10;;;;;;;14.00;6.40;;;;;;;11.34;100.00;98021.06;5091351;28;20044;-45
2024/02/11 07:00:38;;;;;;;9.38;5.75;;;;;;;11.62;100.00;98029.84;5091416;28;20412;-45
2024/02/11 07:03:10;;;;;;;12.60;6.22;;;;;;;11.74;100.00;98028.63;5091071;28;20405;-44
2024/02/11 07:05:41;;;;;;;11.93;5.90;;;;;;;11.92;100.00;98030.47;5091191;28;20056;-45
2024/02/11 07:08:11;;;;;;;10.75;6.05;;;;;;;11.88;100.00;98034.47;5090565;28;20132;-45
2024/02/11 07:10:41;;;;;;;11.95;6.15;;;;;;;11.80;100.00;98039.72;5090982;28;20105;-45
2024/02/11 07:13:10;;;;;;;11.40;6.60;;;;;;;11.79;100.00;98041.53;5091205;28;20052;-47
2024/02/11 07:15:38;;;;;;;9.63;6.07;;;;;;;11.81;100.00;98044.91;5091235;28;20051;-46
2024/02/11 07:18:10;;;;;;;12.73;6.18;;;;;;;11.89;100.00;98039.66;5091066;28;20101;-46
2024/02/11 07:20:39;;;;;;;12.48;6.38;;;;;;;11.89;100.00;98042.31;5091122;28;20091;-45
2024/02/11 07:23:08;;;;;;;14.82;6.93;;;;;;;11.73;100.00;98036.78;5090833;28;20229;-46
2024/02/11 07:25:37;;;;;;;9.80;6.32;;;;;;;11.74;100.00;98041.13;5090990;28;20048;-48
2024/02/11 07:28:07;;;;;;;11.73;6.43;;;;;;;11.72;100.00;98035.13;5090938;28;20077;-47
2024/02/11 07:30:35;;;;;;;13.10;6.15;;;;;;;11.69;100.00;98040.78;5090975;28;20401;-48
2024/02/11 07:33:05;;;;;;;14.23;6.45;;;;;;;11.71;100.00;98042.28;5091153;28;20135;-50
2024/02/11 07:35:34;;;;;;;11.95;6.30;;;;;;;11.83;100.00;98042.91;5091149;28;20048;-48
2024/02/11 07:38:03;;;;;;;12.68;6.45;;;;;;;11.86;100.00;98047.94;5091081;28;20469;-46
2024/02/11 07:40:32;;;;;;;12.15;5.93;;;;;;;11.71;100.00;98042.28;5090766;28;20547;-48
2024/02/11 07:43:01;;;;;;;14.15;6.88;;;;;;;11.70;100.00;98045.97;5090831;28;20048;-46
2024/02/11 07:45:31;;;;;;;12.02;6.30;;;;;;;11.90;100.00;98038.66;5090898;28;20627;-47
2024/02/11 07:47:59;;;;;;;8.32;5.55;;;;;;;11.93;100.00;98043.66;5090976;28;20451;-45
2024/02/11 07:50:28;;;;;;;10.63;5.70;;;;;;;11.95;100.00;98039.00;5090764;28;20059;-46
2024/02/11 07:52:56;;;;;;;12.82;5.93;;;;;;;11.91;100.00;98042.16;5090513;28;20147;-47
2024/02/11 07:55:25;;;;;;;9.52;5.47;;;;;;;11.82;100.00;98041.25;5090746;28;20472;-46
2024/02/11 07:57:54;;;;;;;10.98;5.97;;;;;;;11.63;100.00;98036.88;5090440;28;20512;-46
2024/02/11 08:00:22;;;;;;;11.70;6.38;;;;;;;11.79;100.00;98041.53;5090717;28;20105;-46
2024/02/11 08:02:52;;;;;;;10.77;6.07;;;;;;;11.78;100.00;98042.53;5090569;28;20052;-47
2024/02/11 08:05:22;;;;;;;11.30;6.38;;;;;;;11.84;100.00;98031.25;5090390;28;20335;-48
2024/02/11 08:07:52;;;;;;;10.50;6.35;;;;;;;11.86;100.00;98031.91;5090465;28;20051;-49
2024/02/11 08:10:22;;;;;;;9.88;6.15;;;;;;;11.75;100.00;98034.81;5090218;28;20076;-47
2024/02/11 08:12:50;;;;;;;12.80;6.32;;;;;;;11.88;100.00;98035.31;5090447;28;20098;-48
2024/02/11 08:15:18;;;;;;;13.93;6.93;;;;;;;11.69;100.00;98035.44;5090450;28;20044;-48
2024/02/11 08:17:47;;;;;;;12.65;6.30;;;;;;;11.75;100.00;98040.13;5091097;28;20165;-46
2024/02/11 08:20:18;;;;;;;10.88;5.95;;;;;;;11.81;100.00;98041.41;5094165;28;20040;-48
2024/02/11 08:22:48;;;;;;;15.20;6.22;;;;;;;11.82;100.00;98040.41;5093960;28;20080;-46
2024/02/11 08:25:17;;;;;;;11.02;6.38;;;;;;;11.78;100.00;98039.84;5093908;28;20040;-47
2024/02/11 08:27:45;;;;;;;12.07;6.75;;;;;;;11.79;100.00;98030.84;5093853;28;20380;-46
2024/02/11 08:30:14;;;;;;;12.40;6.82;;;;;;;11.79;100.00;98032.69;5094071;28;20048;-48
2024/02/11 08:32:42;;;;;;;10.85;6.43;;;;;;;11.94;100.00;98023.97;5093791;28;20044;-46
2024/02/11 08:35:12;;;;;;;11.23;6.13;;;;;;;11.93;100.00;98022.31;5093773;28;20163;-46
2024/02/11 08:37:43;;;;;;;11.10;5.97;;;;;;;11.92;100.00;98025.13;5093844;28;20048;-48
2024/02/11 08:40:12;;;;;;;15.60;7.93;;;;;;;11.89;100.00;98014.75;5094055;28;20101;-48
2024/02/11 08:42:41;;;;;;;12.73;6.60;;;;;;;11.96;100.00;98013.13;5093972;28;20046;-45
2024/02/11 08:45:11;;;;;;;15.60;8.43;;;;;;;12.00;100.00;98019.84;5093661;28;20493;-45
2024/02/11 08:47:40;;;;;;;12.70;6.68;;;;;;;12.00;100.00;98012.69;5093676;28;20055;-45
2024/02/11 08:50:10;;;;;;;13.35;7.25;;;;;;;11.90;100.00;98021.78;5093499;28;20040;-48
2024/02/11 08:52:40;;;;;;;20.40;9.90;;;;;;;11.92;100.00;98030.47;5093826;28;20122;-47
2024/02/11 08:55:11;;;;;;;11.63;6.78;;;;;;;11.77;100.00;98038.16;5093589;28;20043;-45
2024/02/11 08:57:40;;;;;;;16.08;8.75;;;;;;;11.85;100.00;98042.75;5093432;28;20051;-45
2024/02/11 09:00:14;;;;;;;13.85;7.25;;;;;;;11.88;100.00;98037.97;5093431;28;20067;-46
2024/02/11 09:02:42;;;;;;;15.77;6.75;;;;;;;11.74;100.00;98049.16;5093209;28;20474;-48
2024/02/11 09:05:10;;;;;;;15.35;7.57;;;;;;;11.81;100.00;98039.56;5093478;28;20050;-47
2024/02/11 09:07:39;;;;;;;11.40;6.75;;;;;;;11.72;100.00;98051.13;5093287;28;20155;-47
2024/02/11 09:10:14;;;;;;;13.68;6.80;;;;;;;11.82;100.00;98041.25;5093312;28;20048;-49
2024/02/11 09:12:43;;;;;;;13.10;6.78;;;;;;;11.77;100.00;98048.84;5093310;28;20076;-46
2024/02/11 09:15:15;;;;;;;10.57;6.25;;;;;;;11.69;100.00;98043.44;5093055;28;20048;-46
2024/02/11 09:17:46;;;;;;;11.93;6.03;;;;;;;11.82;100.00;98051.09;5093265;28;20076;-46
2024/02/11 09:20:15;;;;;;;12.15;6.70;;;;;;;11.87;100.00;98055.00;5095623;28;20050;-46
2024/02/11 09:22:44;;;;;;;12.43;6.85;;;;;;;11.64;100.00;98048.38;5113619;28;20048;-45
2024/02/11 09:25:14;;;;;;;11.30;6.32;;;;;;;11.61;100.00;98051.38;5113573;27;20047;-45
2024/02/11 09:27:43;;;;;;;12.13;6.75;;;;;;;11.70;100.00;98053.97;5113406;28;20043;-45
2024/02/11 09:30:15;;;;;;;12.65;6.93;;;;;;;11.67;100.00;98064.94;5112904;27;20055;-45
2024/02/11 09:32:46;;;;;;;11.65;6.95;;;;;;;11.80;100.00;98059.25;5113434;28;20051;-47
2024/02/11 09:35:17;;;;;;;15.32;6.90;;;;;;;11.94;100.00;98063.22;5113535;28;20048;-45
2024/02/11 09:37:45;;;;;;;13.70;7.45;;;;;;;11.80;100.00;98064.59;5113632;28;20488;-46
2024/02/11 09:40:17;;;;;;;13.50;7.00;;;;;;;11.79;100.00;98068.25;5113461;28;20051;-46
2024/02/11 09:42:47;;;;;;;10.18;6.35;;;;;;;11.72;100.00;98073.34;5114101;27;20082;-46
2024/02/11 09:45:17;;;;;;;13.93;8.15;;;;;;;11.84;100.00;98076.66;5114551;28;20130;-47
2024/02/11 09:47:50;;;;;;;12.85;7.05;;;;;;;11.92;100.00;98068.72;5113919;28;20130;-45
2024/02/11 09:50:20;;;;;;;12.20;7.25;;;;;;;11.75;100.00;98066.84;5113937;28;20075;-45
2024/02/11 09:52:50;;;;;;;14.52;8.07;;;;;;;11.90;100.00;98076.06;5113922;28;20047;-45
2024/02/11 09:55:20;;;;;;;12.23;7.68;;;;;;;11.85;100.00;98072.97;5113968;28;20047;-47
2024/02/11 09:57:50;;;;;;;13.88;7.93;;;;;;;11.79;100.00;98078.94;5112971;28;20051;-46
2024/02/11 10:00:20;;;;;;;13.02;7.22;;;;;;;11.81;100.00;98071.63;5112963;28;20453;-45
2024/02/11 10:02:50;;;;;;;14.88;7.53;;;;;;;11.95;100.00;98071.06;5112672;28;20051;-45
2024/02/11 10:05:23;;;;;;;14.35;7.18;;;;;;;11.81;100.00;98068.94;5112680;28;20047;-45
2024/02/11 10:07:54;;;;;;;24.83;7.40;;;;;;;12.02;100.00;98074.81;5112911;28;20044;-44
2024/02/11 10:10:25;;;;;;;14.23;7.63;;;;;;;12.06;100.00;98071.81;5112763;28;20109;-47
2024/02/11 10:12:57;;;;;;;14.93;7.70;;;;;;;12.10;100.00;98076.72;5112828;28;20046;-45
2024/02/11 10:15:26;;;;;;;12.40;7.28;;;;;;;12.21;100.00;98070.28;5112553;27;20488;-46
2024/02/11 10:17:55;;;;;;;10.30;6.90;;;;;;;12.16;100.00;98069.91;5112304;28;20105;-44
2024/02/11 10:20:24;;;;;;;12.52;6.90;;;;;;;12.22;100.00;98071.97;5113429;28;20051;-45
2024/02/11 10:22:53;;;;;;;12.40;7.47;;;;;;;12.44;100.00;98063.44;5112603;28;20040;-47
2024/02/11 10:25:23;;;;;;;13.95;8.40;;;;;;;12.49;100.00;98063.81;5112404;28;20049;-45
2024/02/11 10:27:52;;;;;;;13.57;7.50;;;;;;;12.53;100.00;98062.47;5112243;28;20473;-46
2024/02/11 10:30:20;;;;;;;13.63;8.10;;;;;;;12.68;100.00;98054.72;5112117;28;20044;-46
2024/02/11 10:32:49;;;;;;;16.75;9.20;;;;;;;12.70;100.00;98054.56;5112391;28;20040;-46
2024/02/11 10:35:18;;;;;;;11.52;7.47;;;;;;;12.55;100.00;98048.97;5112301;28;20522;-46
2024/02/11 10:37:47;;;;;;;14.68;8.27;;;;;;;12.72;100.00;98044.53;5112225;28;20039;-46
2024/02/11 10:40:25;;;;;;;16.17;7.70;;;;;;;12.71;100.00;98048.22;5112074;28;20052;-51
2024/02/11 10:42:55;;;;;;;14.57;8.10;;;;;;;12.66;100.00;98040.69;5111264;28;20092;-47
2024/02/11 10:45:25;;;;;;;12.95;7.90;;;;;;;12.33;100.00;98042.28;5112191;28;20040;-46
2024/02/11 10:47:53;;;;;;;11.20;6.50;;;;;;;12.36;100.00;98044.69;5112394;28;20477;-46
2024/02/11 10:50:21;;;;;;;12.85;6.97;;;;;;;12.57;100.00;98037.13;5111979;28;20133;-45
2024/02/11 10:52:50;;;;;;;13.25;7.18;;;;;;;12.72;100.00;98039.19;5112401;28;20044;-45
2024/02/11 10:55:22;;;;;;;10.73;6.60;;;;;;;12.68;100.00;98037.84;5111984;28;20134;-45
2024/02/11 10:57:53;;;;;;;10.07;6.45;;;;;;;12.73;100.00;98046.22;5118064;28;20092;-50
2024/02/11 11:00:26;;;;;;;16.27;7.15;;;;;;;12.60;100.00;98046.66;5116058;28;20128;-47
2024/02/11 11:02:57;;;;;;;;;;;;;;;12.64;100.00;98041.81;5113731;28;20567;-45
2024/02/11 11:05:40;;;;;;;13.65;7.43;;;;;;;12.44;100.00;98042.03;5112078;28;19927;-46
2024/02/11 11:08:12;;;;;;;12.07;6.93;;;;;;;12.51;100.00;98037.75;5111745;28;20458;-44
2024/02/11 11:10:41;;;;;;;14.13;8.50;;;;;;;12.56;100.00;98050.66;5111854;28;20047;-46
2024/02/11 11:13:10;;;;;;;22.63;12.38;;;;;;;12.60;100.00;98044.81;5111615;28;20044;-46
2024/02/11 11:15:43;;;;;;;14.88;8.02;;;;;;;12.72;100.00;98039.19;5111549;28;20094;-49
2024/02/11 11:18:13;;;;;;;11.88;6.82;;;;;;;12.59;100.00;98042.31;5111855;28;20408;-47
2024/02/11 11:20:52;;;;;;;16.77;7.28;;;;;;;12.63;100.00;98040.97;5111506;28;20055;-46
2024/02/11 11:23:20;;;;;;;12.88;6.78;;;;;;;12.71;100.00;98043.69;5111111;28;20051;-46
2024/02/11 11:25:55;;;;;;;11.75;7.15;;;;;;;12.49;100.00;98034.38;5111154;28;20127;-46
2024/02/11 11:28:29;;;;;;;12.40;7.03;;;;;;;12.69;100.00;98034.16;5111059;28;20108;-46
2024/02/11 11:30:59;;;;;;;12.40;7.65;;;;;;;12.82;100.00;98034.56;5110941;28;20047;-45